Terminal Aerodrome Forecast
Issued by NWS

Home | Current Version | Previous Version | Text Only | Print | Product List | Glossary On
Versions: 1 2 3 4 5 6 7 8 9 10 11 12 13 14 15 16 17 18 19 20 21 22
000
FTAK31 PANC 252348 AAA
TAFACD
TAF AMD
PACD 252348Z 2600/2624 29013KT P6SM SCT025 BKN035
     FM260300 28008KT P6SM BKN035
     FM260600 00000KT P6SM VCFG SCT002 BKN035
     FM261500 17010KT P6SM SCT010 BKN030=

USA.gov is the U.S. government's official web portal to all federal, state and local government web resources and services.